createdAt,value
2022-12-27T00:01:38.667Z,6.47
2022-12-27T00:04:06.476Z,6.70
2022-12-27T00:06:34.096Z,6.35
2022-12-27T00:09:02.623Z,6.88
2022-12-27T00:11:30.621Z,6.68
2022-12-27T00:13:59.890Z,6.50
2022-12-27T00:16:27.905Z,6.60
2022-12-27T00:18:57.182Z,6.60
2022-12-27T00:21:25.443Z,6.15
2022-12-27T00:23:55.215Z,6.80
2022-12-27T00:26:24.423Z,6.70
2022-12-27T00:28:52.351Z,6.50
2022-12-27T00:31:21.326Z,7.05
2022-12-27T00:33:51.578Z,8.60
2022-12-27T00:36:22.510Z,6.90
2022-12-27T00:38:50.487Z,7.30
2022-12-27T00:41:18.407Z,6.90
2022-12-27T00:43:46.611Z,7.13
2022-12-27T00:46:14.783Z,8.35
2022-12-27T00:48:43.054Z,6.85
2022-12-27T00:51:15.439Z,7.20
2022-12-27T00:53:44.734Z,7.28
2022-12-27T00:56:15.351Z,6.75
2022-12-27T00:58:42.945Z,6.80
2022-12-27T01:01:12.413Z,7.25
2022-12-27T01:03:40.546Z,7.13
2022-12-27T01:06:10.064Z,7.30
2022-12-27T01:08:37.886Z,6.40
2022-12-27T01:11:07.554Z,6.40
2022-12-27T01:13:35.549Z,6.97
2022-12-27T01:16:03.575Z,7.03
2022-12-27T01:18:31.194Z,7.00
2022-12-27T01:20:58.780Z,6.93
2022-12-27T01:23:27.704Z,7.75
2022-12-27T01:26:00.830Z,7.53
2022-12-27T01:28:29.935Z,7.57
2022-12-27T01:30:57.667Z,7.78
2022-12-27T01:33:25.572Z,7.82
2022-12-27T01:35:53.272Z,7.43
2022-12-27T01:38:20.883Z,7.70
2022-12-27T01:40:48.466Z,7.70
2022-12-27T01:43:17.181Z,7.93
2022-12-27T01:45:47.588Z,7.18
2022-12-27T01:48:17.627Z,6.97
2022-12-27T01:50:47.416Z,6.57
2022-12-27T01:53:17.808Z,7.47
2022-12-27T01:55:48.932Z,7.43
2022-12-27T01:58:20.242Z,7.20
2022-12-27T02:00:50.338Z,8.18
2022-12-27T02:03:21.722Z,6.93
2022-12-27T02:05:50.750Z,6.57
2022-12-27T02:08:31.744Z,6.95
2022-12-27T02:10:59.881Z,8.38
2022-12-27T02:13:28.382Z,7.65
2022-12-27T02:15:57.334Z,6.97
2022-12-27T02:18:24.954Z,6.70
2022-12-27T02:21:09.072Z,6.90
2022-12-27T02:24:03.713Z,7.00
2022-12-27T02:26:47.068Z,6.93
2022-12-27T02:29:23.925Z,7.05
2022-12-27T02:31:57.530Z,6.70
2022-12-27T02:34:27.786Z,6.82
2022-12-27T02:37:01.982Z,7.00
2022-12-27T02:39:30.595Z,7.18
2022-12-27T02:42:21.576Z,7.18
2022-12-27T02:45:10.464Z,6.93
2022-12-27T02:47:56.219Z,6.78
2022-12-27T02:50:41.731Z,6.38
2022-12-27T02:53:13.830Z,6.72
2022-12-27T02:58:44.797Z,6.60
2022-12-27T03:01:36.940Z,8.43
2022-12-27T03:04:14.621Z,7.20
2022-12-27T03:06:54.144Z,6.95
2022-12-27T03:10:07.412Z,7.18
2022-12-27T03:13:04.061Z,6.85
2022-12-27T03:15:55.043Z,6.45
2022-12-27T03:18:29.222Z,7.25
2022-12-27T03:21:15.699Z,6.70
2022-12-27T03:24:02.606Z,7.43
2022-12-27T03:26:32.023Z,7.75
2022-12-27T03:29:18.086Z,7.07
2022-12-27T03:32:11.767Z,8.20
2022-12-27T03:34:44.520Z,7.45
2022-12-27T03:37:32.693Z,7.03
2022-12-27T03:40:06.479Z,7.30
2022-12-27T03:42:56.314Z,7.72
2022-12-27T03:45:44.547Z,7.43
2022-12-27T03:48:14.240Z,7.35
2022-12-27T03:50:46.363Z,7.20
2022-12-27T03:55:43.377Z,7.45
2022-12-27T03:58:11.001Z,7.03
2022-12-27T04:00:38.590Z,7.22
2022-12-27T04:03:06.240Z,6.82
2022-12-27T04:05:33.853Z,6.90
2022-12-27T04:08:20.511Z,7.22
2022-12-27T04:11:05.977Z,7.35
2022-12-27T04:13:51.302Z,6.57
2022-12-27T04:16:36.679Z,7.05
2022-12-27T04:19:22.047Z,7.13
2022-12-27T04:22:07.465Z,6.57
2022-12-27T04:24:54.126Z,6.88
2022-12-27T04:27:39.336Z,6.78
2022-12-27T04:30:25.720Z,11.82
2022-12-27T04:33:10.989Z,7.70
2022-12-27T04:35:38.590Z,6.57
2022-12-27T04:38:06.197Z,7.15
2022-12-27T04:40:52.739Z,7.03
2022-12-27T04:43:38.156Z,6.75
2022-12-27T04:46:23.427Z,6.45
2022-12-27T04:49:08.868Z,7.60
2022-12-27T04:51:54.029Z,6.20
2022-12-27T04:54:40.383Z,6.50
2022-12-27T04:57:09.341Z,7.20
2022-12-27T04:59:54.618Z,6.63
2022-12-27T05:02:22.465Z,7.07
2022-12-27T05:04:50.334Z,6.90
2022-12-27T05:07:35.496Z,6.93
2022-12-27T05:10:22.852Z,6.47
2022-12-27T05:13:09.589Z,7.72
2022-12-27T05:15:37.282Z,7.18
2022-12-27T05:18:04.971Z,6.78
2022-12-27T05:20:34.830Z,7.20
2022-12-27T05:23:16.401Z,6.85
2022-12-27T05:25:44.592Z,7.25
2022-12-27T05:28:14.470Z,6.80
2022-12-27T05:30:43.902Z,10.13
2022-12-27T05:33:11.707Z,9.35
2022-12-27T05:35:39.439Z,8.18
2022-12-27T05:38:07.585Z,6.93
2022-12-27T05:40:35.356Z,7.65
2022-12-27T05:43:04.281Z,7.75
2022-12-27T05:45:33.950Z,7.28
2022-12-27T05:48:01.589Z,6.95
2022-12-27T05:50:29.195Z,6.68
2022-12-27T05:52:56.980Z,7.30
2022-12-27T05:55:24.680Z,7.20
2022-12-27T05:57:52.305Z,7.72
2022-12-27T06:00:20.128Z,7.10
2022-12-27T06:02:49.167Z,8.50
2022-12-27T06:05:16.845Z,9.20
2022-12-27T06:07:44.511Z,7.70
2022-12-27T06:10:12.472Z,8.43
2022-12-27T06:12:40.059Z,7.25
2022-12-27T06:15:08.443Z,6.72
2022-12-27T06:17:36.009Z,6.72
2022-12-27T06:20:05.692Z,6.63
2022-12-27T06:22:33.287Z,6.82
2022-12-27T06:25:00.829Z,7.32
2022-12-27T06:27:28.439Z,6.63
2022-12-27T06:29:56.050Z,6.90
2022-12-27T06:32:23.663Z,6.97
2022-12-27T06:34:51.237Z,6.60
2022-12-27T06:37:20.230Z,6.75
2022-12-27T06:39:47.829Z,7.00
2022-12-27T06:42:15.390Z,6.63
2022-12-27T06:44:43.035Z,7.00
2022-12-27T06:47:10.627Z,11.48
2022-12-27T06:49:38.206Z,8.80
2022-12-27T06:52:06.210Z,10.13
2022-12-27T06:54:35.243Z,9.43
2022-12-27T06:57:02.871Z,9.27
2022-12-27T06:59:30.447Z,10.23
2022-12-27T07:01:58.190Z,11.32
2022-12-27T07:04:25.900Z,8.90
2022-12-27T07:06:53.476Z,9.18
2022-12-27T07:09:21.047Z,8.50
2022-12-27T07:11:50.011Z,8.95
2022-12-27T07:14:17.599Z,8.98
2022-12-27T07:16:45.248Z,8.80
2022-12-27T07:19:12.842Z,8.85
2022-12-27T07:21:40.385Z,8.38
2022-12-27T07:24:08.620Z,7.40
2022-12-27T07:26:36.229Z,8.40
2022-12-27T07:29:05.567Z,7.55
2022-12-27T07:31:34.016Z,7.85
2022-12-27T07:34:03.190Z,8.13
2022-12-27T07:36:33.843Z,9.82
2022-12-27T07:39:01.505Z,7.90
2022-12-27T07:41:29.087Z,9.02
2022-12-27T07:43:56.813Z,8.50
2022-12-27T07:46:27.389Z,7.97
2022-12-27T07:48:56.162Z,7.93
2022-12-27T07:51:25.074Z,6.72
2022-12-27T07:53:53.066Z,8.45
2022-12-27T07:56:26.168Z,12.70
2022-12-27T07:58:55.527Z,12.25
2022-12-27T08:01:25.621Z,15.82
2022-12-27T08:03:53.429Z,10.60
2022-12-27T08:06:23.954Z,11.27
2022-12-27T08:08:52.688Z,11.85
2022-12-27T08:11:20.427Z,10.07
2022-12-27T08:13:48.049Z,9.05
2022-12-27T08:16:18.024Z,8.85
2022-12-27T08:18:47.092Z,9.20
2022-12-27T08:21:15.888Z,10.75
2022-12-27T08:23:43.648Z,9.90
2022-12-27T08:26:11.433Z,8.18
2022-12-27T08:28:39.445Z,8.00
2022-12-27T08:31:08.087Z,8.68
2022-12-27T08:33:36.369Z,7.97
2022-12-27T08:36:22.354Z,7.80
2022-12-27T08:38:55.247Z,10.60
2022-12-27T08:41:22.997Z,7.72
2022-12-27T08:43:50.681Z,9.40
2022-12-27T08:46:19.518Z,10.25
2022-12-27T08:48:48.708Z,7.93
2022-12-27T08:51:26.585Z,9.68
2022-12-27T08:54:00.685Z,7.80
2022-12-27T08:56:28.321Z,8.07
2022-12-27T08:58:55.940Z,13.57
2022-12-27T09:01:25.448Z,8.18
2022-12-27T09:03:53.198Z,8.63
2022-12-27T09:06:24.301Z,7.57
2022-12-27T09:08:52.550Z,6.37
2022-12-27T09:11:21.752Z,8.07
2022-12-27T09:13:49.446Z,8.00
2022-12-27T09:16:19.730Z,10.27
2022-12-27T09:18:49.695Z,8.88
2022-12-27T09:21:17.800Z,8.52
2022-12-27T09:23:47.821Z,7.88
2022-12-27T09:26:17.936Z,7.88
2022-12-27T09:28:46.517Z,8.70
2022-12-27T09:31:15.721Z,8.32
2022-12-27T09:33:43.736Z,9.43
2022-12-27T09:36:12.817Z,8.65
2022-12-27T09:38:40.892Z,8.55
2022-12-27T09:41:40.826Z,8.10
2022-12-27T09:44:06.367Z,9.35
2022-12-27T09:46:37.507Z,9.38
2022-12-27T09:49:05.155Z,13.60
2022-12-27T09:51:36.006Z,10.95
2022-12-27T09:54:08.418Z,8.90
2022-12-27T09:57:09.542Z,9.43
2022-12-27T09:59:27.058Z,10.57
2022-12-27T10:01:54.870Z,11.13
2022-12-27T10:04:22.784Z,8.77
2022-12-27T10:07:06.162Z,10.32
2022-12-27T10:09:56.263Z,9.15
2022-12-27T10:12:36.209Z,11.05
2022-12-27T10:15:17.948Z,9.75
2022-12-27T10:17:53.503Z,16.00
2022-12-27T10:20:31.286Z,8.60
2022-12-27T10:23:06.236Z,7.93
2022-12-27T10:25:35.119Z,7.70
2022-12-27T10:28:13.817Z,9.85
2022-12-27T10:30:41.643Z,9.63
2022-12-27T10:33:15.009Z,10.48
2022-12-27T10:35:42.618Z,7.75
2022-12-27T10:38:11.550Z,7.82
2022-12-27T10:40:41.219Z,7.57
2022-12-27T10:43:19.244Z,7.40
2022-12-27T10:45:46.987Z,7.60
2022-12-27T10:48:17.468Z,8.13
2022-12-27T10:50:51.707Z,7.03
2022-12-27T10:53:34.991Z,6.82
2022-12-27T10:56:08.344Z,6.95
2022-12-27T10:58:40.974Z,6.90
2022-12-27T11:01:16.868Z,7.30
2022-12-27T11:03:44.657Z,7.22
2022-12-27T11:06:23.710Z,7.40
2022-12-27T11:08:52.777Z,8.02
2022-12-27T11:11:22.492Z,7.43
2022-12-27T11:13:52.537Z,7.13
2022-12-27T11:16:29.193Z,8.00
2022-12-27T11:18:58.854Z,7.65
2022-12-27T11:21:28.138Z,8.15
2022-12-27T11:23:58.935Z,7.60
2022-12-27T11:26:29.425Z,7.82
2022-12-27T11:29:00.125Z,8.90
2022-12-27T11:31:32.060Z,7.68
2022-12-27T11:34:01.824Z,12.57
2022-12-27T11:36:32.215Z,8.82
2022-12-27T11:39:00.617Z,8.20
2022-12-27T11:41:35.899Z,8.05
2022-12-27T11:44:09.516Z,10.30
2022-12-27T11:46:42.045Z,8.68
2022-12-27T11:49:18.190Z,8.68
2022-12-27T11:52:32.313Z,9.15
2022-12-27T11:55:19.659Z,7.70
2022-12-27T11:58:17.070Z,8.85
2022-12-27T12:00:53.437Z,8.48
2022-12-27T12:03:49.457Z,8.30
2022-12-27T12:06:19.109Z,8.10
2022-12-27T12:09:00.603Z,9.13
2022-12-27T12:11:37.675Z,11.73
2022-12-27T12:14:54.710Z,8.60
2022-12-27T12:17:42.559Z,8.48
2022-12-27T12:20:24.200Z,8.95
2022-12-27T12:23:04.671Z,6.45
2022-12-27T12:25:52.069Z,8.20
2022-12-27T12:28:58.221Z,10.98
2022-12-27T12:31:36.855Z,8.63
2022-12-27T12:34:18.273Z,8.52
2022-12-27T12:36:56.488Z,8.00
2022-12-27T12:39:30.589Z,8.77
2022-12-27T12:42:15.029Z,9.50
2022-12-27T12:45:00.197Z,8.95
2022-12-27T12:47:41.080Z,10.07
2022-12-27T12:50:22.808Z,9.02
2022-12-27T12:53:14.550Z,9.85
2022-12-27T12:55:53.359Z,9.30
2022-12-27T12:58:34.013Z,22.55
2022-12-27T13:01:16.496Z,8.80
2022-12-27T13:04:02.987Z,9.52
2022-12-27T13:06:58.108Z,9.13
2022-12-27T13:09:35.218Z,8.63
2022-12-27T13:12:06.068Z,9.45
2022-12-27T13:14:48.028Z,9.18
2022-12-27T13:17:19.727Z,9.68
2022-12-27T13:20:02.585Z,8.70
2022-12-27T13:22:41.235Z,9.57
2022-12-27T13:25:22.675Z,9.27
2022-12-27T13:27:54.821Z,8.80
2022-12-27T13:33:17.367Z,9.18
2022-12-27T13:35:59.642Z,11.32
2022-12-27T13:38:44.519Z,11.30
2022-12-27T13:41:38.705Z,11.07
2022-12-27T13:44:36.322Z,11.00
2022-12-27T13:47:23.018Z,12.45
2022-12-27T13:50:04.659Z,9.43
2022-12-27T13:52:53.270Z,10.82
2022-12-27T13:55:38.248Z,14.50
2022-12-27T13:58:19.467Z,15.35
2022-12-27T14:00:52.165Z,16.30
2022-12-27T14:03:48.108Z,14.27
2022-12-27T14:06:35.937Z,12.88
2022-12-27T14:09:37.773Z,10.15
2022-12-27T14:12:39.835Z,11.53
2022-12-27T14:15:09.719Z,10.32
2022-12-27T14:17:42.081Z,13.30
2022-12-27T14:20:26.549Z,11.75
2022-12-27T14:23:05.814Z,10.95
2022-12-27T14:26:10.725Z,9.57
2022-12-27T14:29:15.910Z,9.32
2022-12-27T14:31:57.829Z,9.70
2022-12-27T14:34:59.508Z,9.85
2022-12-27T14:38:12.861Z,10.35
2022-12-27T14:44:00.857Z,9.07
2022-12-27T14:47:00.780Z,7.90
2022-12-27T14:50:14.322Z,8.70
2022-12-27T14:53:08.449Z,9.10
2022-12-27T14:55:50.219Z,8.00
2022-12-27T14:58:30.799Z,8.15
2022-12-27T15:01:11.985Z,8.25
2022-12-27T15:03:53.125Z,5.93
2022-12-27T15:06:28.704Z,11.02
2022-12-27T15:09:07.150Z,8.73
2022-12-27T15:11:46.257Z,10.23
2022-12-27T15:14:26.950Z,16.80
2022-12-27T15:17:01.155Z,21.77
2022-12-27T15:19:45.573Z,18.67
2022-12-27T15:22:21.102Z,10.45
2022-12-27T15:24:54.096Z,9.48
2022-12-27T15:27:27.757Z,9.95
2022-12-27T15:30:07.279Z,8.88
2022-12-27T15:32:46.972Z,8.85
2022-12-27T15:35:34.220Z,9.00
2022-12-27T15:38:12.002Z,9.48
2022-12-27T15:41:16.494Z,8.63
2022-12-27T15:44:06.571Z,7.85
2022-12-27T15:47:02.371Z,8.32
2022-12-27T15:49:51.571Z,8.52
2022-12-27T15:52:25.459Z,9.23
2022-12-27T15:55:07.031Z,9.50
2022-12-27T15:58:00.328Z,8.98
2022-12-27T16:00:33.548Z,8.32
2022-12-27T16:03:03.240Z,9.88
2022-12-27T16:06:28.685Z,9.75
2022-12-27T16:09:24.413Z,11.32
2022-12-27T16:12:02.081Z,8.82
2022-12-27T16:14:31.440Z,10.02
2022-12-27T16:17:11.869Z,9.52
2022-12-27T16:20:16.244Z,9.15
2022-12-27T16:22:45.188Z,9.48
2022-12-27T16:25:31.380Z,10.43
2022-12-27T16:28:02.215Z,13.13
2022-12-27T16:31:33.033Z,34.63
2022-12-27T16:38:03.593Z,43.97
2022-12-27T16:40:46.103Z,35.38
2022-12-27T16:43:49.632Z,47.30
2022-12-27T16:46:21.773Z,25.00
2022-12-27T16:51:33.811Z,18.70
2022-12-27T16:54:07.209Z,19.85
2022-12-27T16:56:37.467Z,25.88
2022-12-27T16:59:43.567Z,22.98
2022-12-27T17:02:33.304Z,24.30
2022-12-27T17:05:01.514Z,22.95
2022-12-27T17:07:45.091Z,24.02
2022-12-27T17:10:32.968Z,18.60
2022-12-27T17:13:06.602Z,21.10
2022-12-27T17:15:34.298Z,11.32
2022-12-27T17:18:25.604Z,10.30
2022-12-27T17:21:03.814Z,15.07
2022-12-27T17:23:31.930Z,25.45
2022-12-27T17:26:11.828Z,11.80
2022-12-27T17:28:46.524Z,10.45
2022-12-27T17:31:20.677Z,9.88
2022-12-27T17:33:59.346Z,8.95
2022-12-27T17:36:36.264Z,9.40
2022-12-27T17:39:11.899Z,9.75
2022-12-27T17:42:04.907Z,10.10
2022-12-27T17:44:42.085Z,11.20
2022-12-27T17:47:18.679Z,11.32
2022-12-27T17:49:46.353Z,12.20
2022-12-27T17:52:34.945Z,11.23
2022-12-27T17:55:34.509Z,16.27
2022-12-27T17:58:05.887Z,15.05
2022-12-27T18:00:37.489Z,9.50
2022-12-27T18:03:09.057Z,9.40
2022-12-27T18:05:40.868Z,11.32
2022-12-27T18:08:19.814Z,9.20
2022-12-27T18:10:47.435Z,9.10
2022-12-27T18:13:18.812Z,10.25
2022-12-27T18:15:50.071Z,9.85
2022-12-27T18:18:20.150Z,10.00
2022-12-27T18:20:47.743Z,9.70
2022-12-27T18:23:18.284Z,9.23
2022-12-27T18:25:57.415Z,9.75
2022-12-27T18:28:32.511Z,10.48
2022-12-27T18:31:04.821Z,10.57
2022-12-27T18:33:35.417Z,14.02
2022-12-27T18:36:05.872Z,18.20
2022-12-27T18:38:36.373Z,20.23
2022-12-27T18:41:07.577Z,15.70
2022-12-27T18:43:35.879Z,18.53
2022-12-27T18:46:06.144Z,20.42
2022-12-27T18:48:35.973Z,21.92
2022-12-27T18:51:04.328Z,18.15
2022-12-27T18:53:33.080Z,26.95
2022-12-27T18:56:02.243Z,20.23
2022-12-27T18:58:29.923Z,24.02
2022-12-27T19:01:01.433Z,23.98
2022-12-27T19:03:35.218Z,19.88
2022-12-27T19:06:08.166Z,19.77
2022-12-27T19:08:39.944Z,22.85
2022-12-27T19:11:08.156Z,22.50
2022-12-27T19:13:43.566Z,21.95
2022-12-27T19:16:21.910Z,20.92
2022-12-27T19:18:53.748Z,22.02
2022-12-27T19:21:29.827Z,16.77
2022-12-27T19:23:57.472Z,20.10
2022-12-27T19:26:31.974Z,13.88
2022-12-27T19:29:03.186Z,15.73
2022-12-27T19:31:31.340Z,16.00
2022-12-27T19:34:02.711Z,19.95
2022-12-27T19:36:33.117Z,16.77
2022-12-27T19:39:01.470Z,20.25
2022-12-27T19:41:29.215Z,17.73
2022-12-27T19:43:57.050Z,15.32
2022-12-27T19:46:30.782Z,14.10
2022-12-27T19:49:40.407Z,14.18
2022-12-27T19:51:48.092Z,21.33
2022-12-27T19:54:17.162Z,13.30
2022-12-27T19:56:44.763Z,18.25
2022-12-27T19:59:15.989Z,16.73
2022-12-27T20:01:45.429Z,14.27
2022-12-27T20:04:14.626Z,17.55
2022-12-27T20:06:42.395Z,13.75
2022-12-27T20:09:14.485Z,18.08
2022-12-27T20:14:11.328Z,23.08
2022-12-27T20:16:38.924Z,22.95
2022-12-27T20:19:06.542Z,16.73
2022-12-27T20:21:35.549Z,16.10
2022-12-27T20:24:03.287Z,17.10
2022-12-27T20:26:30.887Z,17.63
2022-12-27T20:28:59.672Z,14.85
2022-12-27T20:31:27.328Z,16.70
2022-12-27T20:33:56.401Z,17.83
2022-12-27T20:36:24.215Z,15.07
2022-12-27T20:38:53.181Z,26.65
2022-12-27T20:41:22.874Z,43.92
2022-12-27T20:43:55.070Z,33.35
2022-12-27T20:46:22.797Z,18.25
2022-12-27T20:48:50.769Z,18.77
2022-12-27T20:51:19.509Z,13.85
2022-12-27T20:53:49.042Z,24.17
2022-12-27T20:56:18.348Z,17.27
2022-12-27T20:58:45.923Z,39.22
2022-12-27T21:01:15.856Z,33.75
2022-12-27T21:03:44.537Z,40.70
2022-12-27T21:06:13.780Z,39.60
2022-12-27T21:08:47.782Z,90.50
2022-12-27T21:11:19.803Z,39.67
2022-12-27T21:13:48.825Z,55.25
2022-12-27T21:16:18.311Z,28.77
2022-12-27T21:18:46.096Z,73.72
2022-12-27T21:21:19.456Z,98.35
2022-12-27T21:23:47.763Z,90.72
2022-12-27T21:26:16.778Z,26.33
2022-12-27T21:28:45.831Z,19.20
2022-12-27T21:31:14.167Z,20.55
2022-12-27T21:33:41.965Z,19.27
2022-12-27T21:36:12.463Z,18.30
2022-12-27T21:38:40.104Z,17.58
2022-12-27T21:41:10.904Z,15.05
2022-12-27T21:43:38.548Z,15.98
2022-12-27T21:46:10.488Z,34.67
2022-12-27T21:48:38.671Z,25.92
2022-12-27T21:51:06.911Z,122.35
2022-12-27T21:53:34.700Z,140.32
2022-12-27T21:56:02.406Z,235.80
2022-12-27T21:58:30.980Z,142.38
2022-12-27T22:01:08.079Z,189.48
2022-12-27T22:03:39.220Z,38.88
2022-12-27T22:06:11.415Z,16.33
2022-12-27T22:11:06.594Z,18.73
2022-12-27T22:13:34.275Z,34.38
2022-12-27T22:16:03.823Z,22.73
2022-12-27T22:18:32.321Z,32.03
2022-12-27T22:21:02.480Z,163.20
2022-12-27T22:23:31.504Z,27.52
2022-12-27T22:25:59.114Z,21.92
2022-12-27T22:28:26.968Z,56.20
2022-12-27T22:30:54.768Z,78.75
2022-12-27T22:33:22.428Z,112.47
2022-12-27T22:35:50.066Z,86.97
2022-12-27T22:38:19.063Z,186.73
2022-12-27T22:40:47.072Z,53.72
2022-12-27T22:43:14.941Z,128.85
2022-12-27T22:45:43.922Z,185.02
2022-12-27T22:48:13.071Z,72.80
2022-12-27T22:50:40.648Z,49.30
2022-12-27T22:53:08.203Z,18.75
2022-12-27T22:55:41.134Z,29.52
2022-12-27T22:58:08.787Z,43.42
2022-12-27T23:00:36.321Z,47.90
2022-12-27T23:03:03.898Z,77.22
2022-12-27T23:05:31.480Z,88.60
2022-12-27T23:08:05.117Z,51.20
2022-12-27T23:10:34.881Z,78.20
2022-12-27T23:13:03.831Z,29.85
2022-12-27T23:15:31.437Z,10.73
2022-12-27T23:17:59.046Z,10.73
2022-12-27T23:20:26.666Z,11.75
2022-12-27T23:22:54.257Z,14.35
2022-12-27T23:25:21.829Z,12.10
2022-12-27T23:27:49.395Z,14.30
2022-12-27T23:30:19.455Z,11.05
2022-12-27T23:32:47.082Z,14.20
2022-12-27T23:35:14.797Z,14.65
2022-12-27T23:37:42.384Z,13.38
2022-12-27T23:40:11.380Z,13.57
2022-12-27T23:42:39.014Z,15.13
2022-12-27T23:45:07.532Z,12.05
2022-12-27T23:47:36.467Z,14.00
2022-12-27T23:50:04.290Z,16.20
2022-12-27T23:52:31.937Z,14.10
2022-12-27T23:54:59.567Z,19.70
2022-12-27T23:57:27.219Z,28.98
2022-12-27T23:59:55.403Z,52.25
